This is the latest recevied weather packets stored in our database for station/object LRBV. If no packets are shown the sender has not sent any weather packets the latest 10 day(s).
| Time | Temp. | Humidity | Pressure | Rain* | Wind** | Luminosity | Snow |
|---|---|---|---|---|---|---|---|
| 1777967352 | 16.11° C | 55% | 1017 hPa | - | - | - | - |
| 1777966430 | 16.11° C | 55% | 1017 hPa | - | - | - | - |
| 1777965530 | 13.89° C | 63% | 1018 hPa | - | - | - | - |
| 1777964630 | 13.89° C | 63% | 1018 hPa | - | - | - | - |
| 1777963730 | 12.78° C | 67% | 1018 hPa | - | - | - | - |
| 1777962831 | 12.78° C | 67% | 1018 hPa | - | - | - | - |
| 1777961931 | 11.11° C | 72% | 1018 hPa | - | - | - | - |
| 1777961031 | 11.11° C | 72% | 1018 hPa | - | - | - | - |
| 1777960130 | 11.11° C | 72% | 1018 hPa | - | - | - | - |
| 1777959231 | 11.11° C | 72% | 1018 hPa | - | - | - | - |
| 1777958330 | 7.78° C | 87% | 1018 hPa | - | - | - | - |
| 1777957430 | 7.78° C | 87% | 1018 hPa | - | - | - | - |
| 1777956530 | 6.11° C | 93% | 1017 hPa | - | - | - | - |
| 1777955630 | 6.11° C | 93% | 1017 hPa | - | - | - | - |
| 1777954731 | 5° C | 93% | 1017 hPa | - | - | - | - |
| 1777953830 | 5° C | 93% | 1017 hPa | - | - | - | - |
| 1777943031 | 7.22° C | 87% | 1017 hPa | - | - | - | - |
| 1777941230 | 7.22° C | 87% | 1016 hPa | - | - | - | - |
| 1777939431 | 7.22° C | 87% | 1016 hPa | - | - | - | - |
| 1777929530 | 10° C | 82% | 1016 hPa | - | - | - | - |
| 1777928630 | 10° C | 82% | 1016 hPa | - | - | - | - |
| 1777926832 | 11.11° C | 77% | 1016 hPa | - | - | - | - |
| 1777923231 | 12.22° C | 77% | 1016 hPa | - | - | - | - |
| 1777922330 | 12.78° C | 77% | 1016 hPa | - | - | - | - |
| 1777921431 | 12.78° C | 77% | 1016 hPa | - | - | - | - |
* Rain since midnight (hover to see other rain measurements)
** Current wind speed in m/s (hover to see current wind gust speed)